sensor_id;sensor_type;location;lat;lon;timestamp;P1;durP1;ratioP1;P2;durP2;ratioP2
48114;SDS011;33903;44.704;10.448;2024-02-26T00:02:45;2.47;;;0.93;;
48114;SDS011;33903;44.704;10.448;2024-02-26T00:05:49;3.72;;;1.33;;
48114;SDS011;33903;44.704;10.448;2024-02-26T00:08:54;2.30;;;0.93;;
48114;SDS011;33903;44.704;10.448;2024-02-26T00:11:59;3.38;;;1.40;;
48114;SDS011;33903;44.704;10.448;2024-02-26T00:15:03;4.15;;;1.40;;
48114;SDS011;33903;44.704;10.448;2024-02-26T00:18:09;2.80;;;1.20;;
48114;SDS011;33903;44.704;10.448;2024-02-26T00:21:13;4.53;;;1.15;;
48114;SDS011;33903;44.704;10.448;2024-02-26T00:24:18;2.13;;;1.00;;
48114;SDS011;33903;44.704;10.448;2024-02-26T00:27:22;5.07;;;2.08;;
48114;SDS011;33903;44.704;10.448;2024-02-26T00:30:27;3.45;;;1.35;;
48114;SDS011;33903;44.704;10.448;2024-02-26T00:33:31;5.55;;;1.30;;
48114;SDS011;33903;44.704;10.448;2024-02-26T00:36:36;2.75;;;0.85;;
48114;SDS011;33903;44.704;10.448;2024-02-26T00:39:40;2.45;;;1.08;;
48114;SDS011;33903;44.704;10.448;2024-02-26T00:42:45;4.88;;;1.30;;
48114;SDS011;33903;44.704;10.448;2024-02-26T00:45:50;2.33;;;0.80;;
48114;SDS011;33903;44.704;10.448;2024-02-26T00:48:56;2.08;;;0.80;;
48114;SDS011;33903;44.704;10.448;2024-02-26T00:52:00;1.92;;;0.80;;
48114;SDS011;33903;44.704;10.448;2024-02-26T00:55:05;4.90;;;1.23;;
48114;SDS011;33903;44.704;10.448;2024-02-26T00:58:10;2.88;;;0.93;;
48114;SDS011;33903;44.704;10.448;2024-02-26T01:01:15;3.45;;;0.95;;
48114;SDS011;33903;44.704;10.448;2024-02-26T01:04:19;3.70;;;1.13;;
48114;SDS011;33903;44.704;10.448;2024-02-26T01:07:23;3.13;;;0.88;;
48114;SDS011;33903;44.704;10.448;2024-02-26T01:10:28;2.58;;;1.10;;
48114;SDS011;33903;44.704;10.448;2024-02-26T01:13:33;5.20;;;1.00;;
48114;SDS011;33903;44.704;10.448;2024-02-26T01:16:38;3.13;;;1.13;;
48114;SDS011;33903;44.704;10.448;2024-02-26T01:19:43;2.55;;;0.85;;
48114;SDS011;33903;44.704;10.448;2024-02-26T01:22:48;2.28;;;0.88;;
48114;SDS011;33903;44.704;10.448;2024-02-26T01:25:53;2.65;;;1.10;;
48114;SDS011;33903;44.704;10.448;2024-02-26T01:28:57;2.10;;;0.88;;
48114;SDS011;33903;44.704;10.448;2024-02-26T01:32:02;3.10;;;1.00;;
48114;SDS011;33903;44.704;10.448;2024-02-26T01:35:09;2.53;;;0.90;;
48114;SDS011;33903;44.704;10.448;2024-02-26T01:38:16;2.72;;;1.05;;
48114;SDS011;33903;44.704;10.448;2024-02-26T01:41:20;3.15;;;1.38;;
48114;SDS011;33903;44.704;10.448;2024-02-26T01:44:26;2.60;;;0.95;;
48114;SDS011;33903;44.704;10.448;2024-02-26T01:47:30;3.53;;;1.52;;
48114;SDS011;33903;44.704;10.448;2024-02-26T01:50:35;2.55;;;1.05;;
48114;SDS011;33903;44.704;10.448;2024-02-26T01:53:41;2.95;;;0.80;;
48114;SDS011;33903;44.704;10.448;2024-02-26T01:56:47;3.05;;;0.93;;
48114;SDS011;33903;44.704;10.448;2024-02-26T01:59:53;2.13;;;0.95;;
48114;SDS011;33903;44.704;10.448;2024-02-26T02:02:58;1.50;;;0.68;;
48114;SDS011;33903;44.704;10.448;2024-02-26T02:06:03;2.75;;;0.90;;
48114;SDS011;33903;44.704;10.448;2024-02-26T02:09:08;2.38;;;1.00;;
48114;SDS011;33903;44.704;10.448;2024-02-26T02:12:13;3.63;;;1.08;;
48114;SDS011;33903;44.704;10.448;2024-02-26T02:15:19;4.32;;;1.13;;
48114;SDS011;33903;44.704;10.448;2024-02-26T02:18:24;2.70;;;1.27;;
48114;SDS011;33903;44.704;10.448;2024-02-26T02:21:28;3.22;;;1.25;;
48114;SDS011;33903;44.704;10.448;2024-02-26T02:24:32;3.22;;;1.58;;
48114;SDS011;33903;44.704;10.448;2024-02-26T02:27:37;4.85;;;1.58;;
48114;SDS011;33903;44.704;10.448;2024-02-26T02:30:42;3.58;;;1.25;;
48114;SDS011;33903;44.704;10.448;2024-02-26T02:33:46;3.47;;;1.25;;
48114;SDS011;33903;44.704;10.448;2024-02-26T02:36:51;3.05;;;1.30;;
48114;SDS011;33903;44.704;10.448;2024-02-26T02:39:56;3.33;;;1.13;;
48114;SDS011;33903;44.704;10.448;2024-02-26T02:43:01;3.50;;;1.17;;
48114;SDS011;33903;44.704;10.448;2024-02-26T02:46:06;3.40;;;1.65;;
48114;SDS011;33903;44.704;10.448;2024-02-26T02:49:13;3.20;;;1.35;;
48114;SDS011;33903;44.704;10.448;2024-02-26T02:52:18;4.88;;;1.35;;
48114;SDS011;33903;44.704;10.448;2024-02-26T02:55:23;6.28;;;1.23;;
48114;SDS011;33903;44.704;10.448;2024-02-26T02:58:28;3.83;;;1.15;;
48114;SDS011;33903;44.704;10.448;2024-02-26T03:01:32;2.63;;;1.20;;
48114;SDS011;33903;44.704;10.448;2024-02-26T03:04:37;4.45;;;1.67;;
48114;SDS011;33903;44.704;10.448;2024-02-26T03:07:42;2.50;;;1.30;;
48114;SDS011;33903;44.704;10.448;2024-02-26T03:10:46;4.13;;;1.10;;
48114;SDS011;33903;44.704;10.448;2024-02-26T03:13:51;3.20;;;1.25;;
48114;SDS011;33903;44.704;10.448;2024-02-26T03:16:56;2.63;;;1.20;;
48114;SDS011;33903;44.704;10.448;2024-02-26T03:20:01;4.32;;;1.70;;
48114;SDS011;33903;44.704;10.448;2024-02-26T03:23:08;2.83;;;1.45;;
48114;SDS011;33903;44.704;10.448;2024-02-26T03:26:15;2.58;;;1.17;;
48114;SDS011;33903;44.704;10.448;2024-02-26T03:29:19;3.35;;;1.55;;
48114;SDS011;33903;44.704;10.448;2024-02-26T03:32:24;6.10;;;1.80;;
48114;SDS011;33903;44.704;10.448;2024-02-26T03:35:32;3.40;;;1.73;;
48114;SDS011;33903;44.704;10.448;2024-02-26T03:38:37;4.32;;;1.80;;
48114;SDS011;33903;44.704;10.448;2024-02-26T03:41:42;3.85;;;1.80;;
48114;SDS011;33903;44.704;10.448;2024-02-26T03:44:47;3.22;;;1.50;;
48114;SDS011;33903;44.704;10.448;2024-02-26T03:47:52;4.07;;;1.50;;
48114;SDS011;33903;44.704;10.448;2024-02-26T03:50:56;3.28;;;1.50;;
48114;SDS011;33903;44.704;10.448;2024-02-26T03:54:01;3.58;;;1.55;;
48114;SDS011;33903;44.704;10.448;2024-02-26T03:57:07;2.70;;;1.40;;
48114;SDS011;33903;44.704;10.448;2024-02-26T04:00:11;4.57;;;1.50;;
48114;SDS011;33903;44.704;10.448;2024-02-26T04:03:17;2.40;;;1.15;;
48114;SDS011;33903;44.704;10.448;2024-02-26T04:06:21;3.65;;;1.20;;
48114;SDS011;33903;44.704;10.448;2024-02-26T04:09:26;2.10;;;0.98;;
48114;SDS011;33903;44.704;10.448;2024-02-26T04:12:32;4.88;;;1.20;;
48114;SDS011;33903;44.704;10.448;2024-02-26T04:15:36;2.20;;;0.80;;
48114;SDS011;33903;44.704;10.448;2024-02-26T04:18:40;3.22;;;1.00;;
48114;SDS011;33903;44.704;10.448;2024-02-26T04:21:45;1.65;;;0.70;;
48114;SDS011;33903;44.704;10.448;2024-02-26T04:24:50;2.33;;;0.85;;
48114;SDS011;33903;44.704;10.448;2024-02-26T04:27:55;2.08;;;0.90;;
48114;SDS011;33903;44.704;10.448;2024-02-26T04:30:59;2.58;;;1.00;;
48114;SDS011;33903;44.704;10.448;2024-02-26T04:34:04;1.88;;;0.70;;
48114;SDS011;33903;44.704;10.448;2024-02-26T04:37:09;2.58;;;0.88;;
48114;SDS011;33903;44.704;10.448;2024-02-26T04:40:13;2.90;;;1.10;;
48114;SDS011;33903;44.704;10.448;2024-02-26T04:43:18;2.95;;;0.90;;
48114;SDS011;33903;44.704;10.448;2024-02-26T04:46:23;3.45;;;0.90;;
48114;SDS011;33903;44.704;10.448;2024-02-26T04:49:28;2.78;;;0.80;;
48114;SDS011;33903;44.704;10.448;2024-02-26T04:52:32;1.95;;;0.80;;
48114;SDS011;33903;44.704;10.448;2024-02-26T04:55:38;2.55;;;0.98;;
48114;SDS011;33903;44.704;10.448;2024-02-26T04:58:42;4.13;;;1.48;;
48114;SDS011;33903;44.704;10.448;2024-02-26T05:01:47;2.58;;;0.98;;
48114;SDS011;33903;44.704;10.448;2024-02-26T05:04:52;6.95;;;2.65;;
48114;SDS011;33903;44.704;10.448;2024-02-26T05:07:56;4.85;;;1.92;;
48114;SDS011;33903;44.704;10.448;2024-02-26T05:11:01;3.60;;;1.58;;
48114;SDS011;33903;44.704;10.448;2024-02-26T05:14:06;3.42;;;1.50;;
48114;SDS011;33903;44.704;10.448;2024-02-26T05:17:11;3.13;;;1.20;;
48114;SDS011;33903;44.704;10.448;2024-02-26T05:20:16;5.47;;;2.10;;
48114;SDS011;33903;44.704;10.448;2024-02-26T05:23:20;6.13;;;1.85;;
48114;SDS011;33903;44.704;10.448;2024-02-26T05:26:25;4.30;;;1.90;;
48114;SDS011;33903;44.704;10.448;2024-02-26T05:29:29;3.05;;;1.55;;
48114;SDS011;33903;44.704;10.448;2024-02-26T05:32:33;4.00;;;1.38;;
48114;SDS011;33903;44.704;10.448;2024-02-26T05:35:38;4.18;;;1.60;;
48114;SDS011;33903;44.704;10.448;2024-02-26T05:38:44;5.28;;;1.83;;
48114;SDS011;33903;44.704;10.448;2024-02-26T05:41:50;3.03;;;1.58;;
48114;SDS011;33903;44.704;10.448;2024-02-26T05:44:54;7.05;;;3.10;;
48114;SDS011;33903;44.704;10.448;2024-02-26T05:47:59;3.67;;;2.28;;
48114;SDS011;33903;44.704;10.448;2024-02-26T05:51:04;4.07;;;2.50;;
48114;SDS011;33903;44.704;10.448;2024-02-26T05:54:08;5.43;;;2.40;;
48114;SDS011;33903;44.704;10.448;2024-02-26T05:57:14;5.43;;;3.47;;
48114;SDS011;33903;44.704;10.448;2024-02-26T06:00:18;5.32;;;2.90;;
48114;SDS011;33903;44.704;10.448;2024-02-26T06:03:25;8.80;;;3.25;;
48114;SDS011;33903;44.704;10.448;2024-02-26T06:06:30;7.75;;;3.55;;
48114;SDS011;33903;44.704;10.448;2024-02-26T06:09:34;6.65;;;3.38;;
48114;SDS011;33903;44.704;10.448;2024-02-26T06:12:39;6.28;;;4.38;;
48114;SDS011;33903;44.704;10.448;2024-02-26T06:15:44;9.05;;;5.05;;
48114;SDS011;33903;44.704;10.448;2024-02-26T06:18:49;8.23;;;5.20;;
48114;SDS011;33903;44.704;10.448;2024-02-26T06:21:54;6.68;;;4.22;;
48114;SDS011;33903;44.704;10.448;2024-02-26T06:24:59;7.63;;;4.95;;
48114;SDS011;33903;44.704;10.448;2024-02-26T06:28:03;7.30;;;5.90;;
48114;SDS011;33903;44.704;10.448;2024-02-26T06:31:09;8.35;;;6.22;;
48114;SDS011;33903;44.704;10.448;2024-02-26T06:34:13;9.95;;;7.20;;
48114;SDS011;33903;44.704;10.448;2024-02-26T06:37:18;11.95;;;8.57;;
48114;SDS011;33903;44.704;10.448;2024-02-26T06:40:23;12.43;;;8.63;;
48114;SDS011;33903;44.704;10.448;2024-02-26T06:43:28;14.18;;;9.30;;
48114;SDS011;33903;44.704;10.448;2024-02-26T06:46:32;13.20;;;9.35;;
48114;SDS011;33903;44.704;10.448;2024-02-26T06:49:37;11.30;;;9.43;;
48114;SDS011;33903;44.704;10.448;2024-02-26T06:52:43;13.77;;;9.98;;
48114;SDS011;33903;44.704;10.448;2024-02-26T06:55:50;14.07;;;11.27;;
48114;SDS011;33903;44.704;10.448;2024-02-26T06:58:55;13.52;;;10.77;;
48114;SDS011;33903;44.704;10.448;2024-02-26T07:01:59;17.20;;;13.13;;
48114;SDS011;33903;44.704;10.448;2024-02-26T07:05:04;18.60;;;12.65;;
48114;SDS011;33903;44.704;10.448;2024-02-26T07:08:08;18.88;;;12.02;;
48114;SDS011;33903;44.704;10.448;2024-02-26T07:11:13;22.27;;;13.27;;
48114;SDS011;33903;44.704;10.448;2024-02-26T07:14:18;15.65;;;12.27;;
48114;SDS011;33903;44.704;10.448;2024-02-26T07:17:23;18.15;;;13.52;;
48114;SDS011;33903;44.704;10.448;2024-02-26T07:20:31;21.90;;;13.18;;
48114;SDS011;33903;44.704;10.448;2024-02-26T07:23:36;16.73;;;13.45;;
48114;SDS011;33903;44.704;10.448;2024-02-26T07:26:41;28.23;;;15.02;;
48114;SDS011;33903;44.704;10.448;2024-02-26T07:29:45;17.20;;;14.55;;
48114;SDS011;33903;44.704;10.448;2024-02-26T07:32:50;17.90;;;14.27;;
48114;SDS011;33903;44.704;10.448;2024-02-26T07:35:55;18.10;;;14.93;;
48114;SDS011;33903;44.704;10.448;2024-02-26T07:39:00;21.73;;;14.38;;
48114;SDS011;33903;44.704;10.448;2024-02-26T07:42:05;20.83;;;15.02;;
48114;SDS011;33903;44.704;10.448;2024-02-26T07:45:10;15.68;;;12.60;;
48114;SDS011;33903;44.704;10.448;2024-02-26T07:48:15;15.68;;;12.60;;
48114;SDS011;33903;44.704;10.448;2024-02-26T07:51:19;15.40;;;12.63;;
48114;SDS011;33903;44.704;10.448;2024-02-26T07:54:24;21.10;;;12.55;;
48114;SDS011;33903;44.704;10.448;2024-02-26T07:57:30;17.88;;;13.25;;
48114;SDS011;33903;44.704;10.448;2024-02-26T08:00:36;21.58;;;14.68;;
48114;SDS011;33903;44.704;10.448;2024-02-26T08:03:41;19.17;;;13.90;;
48114;SDS011;33903;44.704;10.448;2024-02-26T08:06:46;18.98;;;13.35;;
48114;SDS011;33903;44.704;10.448;2024-02-26T08:09:50;21.05;;;13.25;;
48114;SDS011;33903;44.704;10.448;2024-02-26T08:12:55;16.38;;;13.25;;
48114;SDS011;33903;44.704;10.448;2024-02-26T08:16:09;15.73;;;12.55;;
48114;SDS011;33903;44.704;10.448;2024-02-26T08:19:14;16.73;;;13.68;;
48114;SDS011;33903;44.704;10.448;2024-02-26T08:22:19;20.17;;;13.15;;
48114;SDS011;33903;44.704;10.448;2024-02-26T08:25:24;18.05;;;12.80;;
48114;SDS011;33903;44.704;10.448;2024-02-26T08:28:30;15.48;;;12.43;;
48114;SDS011;33903;44.704;10.448;2024-02-26T08:31:35;17.00;;;11.65;;
48114;SDS011;33903;44.704;10.448;2024-02-26T08:34:42;17.20;;;12.32;;
48114;SDS011;33903;44.704;10.448;2024-02-26T08:37:48;16.15;;;12.30;;
48114;SDS011;33903;44.704;10.448;2024-02-26T08:40:52;14.80;;;12.10;;
48114;SDS011;33903;44.704;10.448;2024-02-26T08:43:58;17.05;;;10.30;;
48114;SDS011;33903;44.704;10.448;2024-02-26T08:47:04;17.02;;;9.43;;
48114;SDS011;33903;44.704;10.448;2024-02-26T08:50:10;11.48;;;8.70;;
48114;SDS011;33903;44.704;10.448;2024-02-26T08:53:18;9.55;;;7.63;;
48114;SDS011;33903;44.704;10.448;2024-02-26T08:56:23;13.13;;;8.90;;
48114;SDS011;33903;44.704;10.448;2024-02-26T08:59:28;10.13;;;7.78;;
48114;SDS011;33903;44.704;10.448;2024-02-26T09:02:34;11.45;;;8.10;;
48114;SDS011;33903;44.704;10.448;2024-02-26T09:05:38;9.18;;;7.78;;
48114;SDS011;33903;44.704;10.448;2024-02-26T09:08:43;10.43;;;7.68;;
48114;SDS011;33903;44.704;10.448;2024-02-26T09:11:50;9.65;;;7.32;;
48114;SDS011;33903;44.704;10.448;2024-02-26T09:14:57;11.45;;;7.35;;
48114;SDS011;33903;44.704;10.448;2024-02-26T09:18:03;9.18;;;6.28;;
48114;SDS011;33903;44.704;10.448;2024-02-26T09:21:09;7.93;;;6.55;;
48114;SDS011;33903;44.704;10.448;2024-02-26T09:24:16;8.68;;;6.45;;
48114;SDS011;33903;44.704;10.448;2024-02-26T09:27:21;9.20;;;5.43;;
48114;SDS011;33903;44.704;10.448;2024-02-26T09:30:27;8.25;;;5.28;;
48114;SDS011;33903;44.704;10.448;2024-02-26T09:33:32;9.05;;;5.68;;
48114;SDS011;33903;44.704;10.448;2024-02-26T09:36:37;8.70;;;5.07;;
48114;SDS011;33903;44.704;10.448;2024-02-26T09:39:42;13.90;;;8.80;;
48114;SDS011;33903;44.704;10.448;2024-02-26T09:42:47;7.15;;;4.68;;
48114;SDS011;33903;44.704;10.448;2024-02-26T09:45:55;6.57;;;4.70;;
48114;SDS011;33903;44.704;10.448;2024-02-26T09:49:00;7.13;;;4.72;;
48114;SDS011;33903;44.704;10.448;2024-02-26T09:52:06;8.48;;;4.60;;
48114;SDS011;33903;44.704;10.448;2024-02-26T09:55:13;7.20;;;4.70;;
48114;SDS011;33903;44.704;10.448;2024-02-26T09:58:18;5.90;;;4.30;;
48114;SDS011;33903;44.704;10.448;2024-02-26T10:01:24;7.40;;;4.70;;
48114;SDS011;33903;44.704;10.448;2024-02-26T10:04:30;7.07;;;4.03;;
48114;SDS011;33903;44.704;10.448;2024-02-26T10:07:35;8.32;;;3.92;;
48114;SDS011;33903;44.704;10.448;2024-02-26T10:10:41;6.60;;;4.05;;
48114;SDS011;33903;44.704;10.448;2024-02-26T10:13:46;6.28;;;4.18;;
48114;SDS011;33903;44.704;10.448;2024-02-26T10:16:51;10.75;;;4.88;;
48114;SDS011;33903;44.704;10.448;2024-02-26T10:20:15;8.35;;;4.80;;
48114;SDS011;33903;44.704;10.448;2024-02-26T10:23:21;7.57;;;4.43;;
48114;SDS011;33903;44.704;10.448;2024-02-26T10:26:29;7.97;;;5.53;;
48114;SDS011;33903;44.704;10.448;2024-02-26T10:29:34;9.88;;;4.97;;
48114;SDS011;33903;44.704;10.448;2024-02-26T10:32:39;9.43;;;5.70;;
48114;SDS011;33903;44.704;10.448;2024-02-26T10:35:47;10.05;;;6.50;;
48114;SDS011;33903;44.704;10.448;2024-02-26T10:38:54;11.07;;;5.15;;
48114;SDS011;33903;44.704;10.448;2024-02-26T10:41:59;8.27;;;5.93;;
48114;SDS011;33903;44.704;10.448;2024-02-26T10:45:09;15.43;;;5.45;;
48114;SDS011;33903;44.704;10.448;2024-02-26T10:51:26;7.40;;;4.85;;
48114;SDS011;33903;44.704;10.448;2024-02-26T10:54:32;7.88;;;5.00;;
48114;SDS011;33903;44.704;10.448;2024-02-26T10:57:42;10.45;;;5.05;;
48114;SDS011;33903;44.704;10.448;2024-02-26T11:00:50;6.25;;;4.60;;
48114;SDS011;33903;44.704;10.448;2024-02-26T11:03:56;8.32;;;5.13;;
48114;SDS011;33903;44.704;10.448;2024-02-26T11:07:03;9.77;;;5.13;;
48114;SDS011;33903;44.704;10.448;2024-02-26T11:10:09;8.82;;;4.90;;
48114;SDS011;33903;44.704;10.448;2024-02-26T11:13:17;8.35;;;5.15;;
48114;SDS011;33903;44.704;10.448;2024-02-26T11:16:23;9.07;;;4.95;;
48114;SDS011;33903;44.704;10.448;2024-02-26T11:19:30;9.27;;;4.82;;
48114;SDS011;33903;44.704;10.448;2024-02-26T11:22:42;8.25;;;6.05;;
48114;SDS011;33903;44.704;10.448;2024-02-26T11:25:47;6.90;;;5.47;;
48114;SDS011;33903;44.704;10.448;2024-02-26T11:28:55;10.25;;;6.05;;
48114;SDS011;33903;44.704;10.448;2024-02-26T11:32:01;8.50;;;4.40;;
48114;SDS011;33903;44.704;10.448;2024-02-26T11:35:06;11.05;;;5.82;;
48114;SDS011;33903;44.704;10.448;2024-02-26T11:38:21;6.80;;;4.90;;
48114;SDS011;33903;44.704;10.448;2024-02-26T11:41:28;7.78;;;4.93;;
48114;SDS011;33903;44.704;10.448;2024-02-26T11:44:33;7.70;;;4.80;;
48114;SDS011;33903;44.704;10.448;2024-02-26T11:47:40;8.60;;;5.32;;
48114;SDS011;33903;44.704;10.448;2024-02-26T11:50:46;9.02;;;5.28;;
48114;SDS011;33903;44.704;10.448;2024-02-26T11:54:02;7.93;;;5.07;;
48114;SDS011;33903;44.704;10.448;2024-02-26T11:57:26;7.93;;;5.00;;
48114;SDS011;33903;44.704;10.448;2024-02-26T12:00:33;7.15;;;4.57;;
48114;SDS011;33903;44.704;10.448;2024-02-26T12:03:39;5.70;;;3.88;;
48114;SDS011;33903;44.704;10.448;2024-02-26T12:06:47;5.68;;;3.85;;
48114;SDS011;33903;44.704;10.448;2024-02-26T12:10:13;5.53;;;3.15;;
48114;SDS011;33903;44.704;10.448;2024-02-26T12:13:29;5.72;;;3.15;;
48114;SDS011;33903;44.704;10.448;2024-02-26T12:16:38;5.72;;;3.00;;
48114;SDS011;33903;44.704;10.448;2024-02-26T12:19:46;8.45;;;3.55;;
48114;SDS011;33903;44.704;10.448;2024-02-26T12:22:51;5.20;;;2.42;;
48114;SDS011;33903;44.704;10.448;2024-02-26T12:25:59;6.03;;;2.55;;
48114;SDS011;33903;44.704;10.448;2024-02-26T12:29:05;6.05;;;3.50;;
48114;SDS011;33903;44.704;10.448;2024-02-26T12:32:10;9.65;;;3.05;;
48114;SDS011;33903;44.704;10.448;2024-02-26T12:35:17;6.50;;;3.03;;
48114;SDS011;33903;44.704;10.448;2024-02-26T12:38:22;3.55;;;2.30;;
48114;SDS011;33903;44.704;10.448;2024-02-26T12:41:27;5.63;;;2.13;;
48114;SDS011;33903;44.704;10.448;2024-02-26T12:44:33;3.55;;;2.00;;
48114;SDS011;33903;44.704;10.448;2024-02-26T12:47:39;4.53;;;2.17;;
48114;SDS011;33903;44.704;10.448;2024-02-26T12:50:45;4.03;;;2.08;;
48114;SDS011;33903;44.704;10.448;2024-02-26T12:53:54;3.05;;;1.50;;
48114;SDS011;33903;44.704;10.448;2024-02-26T12:57:00;4.50;;;1.52;;
48114;SDS011;33903;44.704;10.448;2024-02-26T13:00:08;4.88;;;1.52;;
48114;SDS011;33903;44.704;10.448;2024-02-26T13:03:14;5.32;;;1.90;;
48114;SDS011;33903;44.704;10.448;2024-02-26T13:06:19;2.40;;;1.27;;
48114;SDS011;33903;44.704;10.448;2024-02-26T13:09:26;4.45;;;2.10;;
48114;SDS011;33903;44.704;10.448;2024-02-26T13:12:32;3.42;;;1.58;;
48114;SDS011;33903;44.704;10.448;2024-02-26T13:15:36;4.70;;;1.80;;
48114;SDS011;33903;44.704;10.448;2024-02-26T13:18:41;4.72;;;2.17;;
48114;SDS011;33903;44.704;10.448;2024-02-26T13:21:47;4.28;;;1.70;;
48114;SDS011;33903;44.704;10.448;2024-02-26T13:24:55;4.25;;;1.65;;
48114;SDS011;33903;44.704;10.448;2024-02-26T13:28:07;3.72;;;1.40;;
48114;SDS011;33903;44.704;10.448;2024-02-26T13:31:20;3.42;;;1.88;;
48114;SDS011;33903;44.704;10.448;2024-02-26T13:34:28;3.45;;;1.95;;
48114;SDS011;33903;44.704;10.448;2024-02-26T13:37:35;3.85;;;1.98;;
48114;SDS011;33903;44.704;10.448;2024-02-26T13:40:40;3.80;;;2.30;;
48114;SDS011;33903;44.704;10.448;2024-02-26T13:43:45;3.85;;;2.33;;
48114;SDS011;33903;44.704;10.448;2024-02-26T13:46:50;8.55;;;2.78;;
48114;SDS011;33903;44.704;10.448;2024-02-26T13:49:54;4.25;;;2.58;;
48114;SDS011;33903;44.704;10.448;2024-02-26T13:53:00;4.53;;;2.88;;
48114;SDS011;33903;44.704;10.448;2024-02-26T13:56:05;11.32;;;2.97;;
48114;SDS011;33903;44.704;10.448;2024-02-26T13:59:10;4.43;;;3.10;;
48114;SDS011;33903;44.704;10.448;2024-02-26T14:02:14;4.63;;;3.00;;
48114;SDS011;33903;44.704;10.448;2024-02-26T14:05:20;9.35;;;3.40;;
48114;SDS011;33903;44.704;10.448;2024-02-26T14:08:24;8.85;;;3.65;;
48114;SDS011;33903;44.704;10.448;2024-02-26T14:11:29;6.22;;;3.83;;
48114;SDS011;33903;44.704;10.448;2024-02-26T14:14:35;5.63;;;3.72;;
48114;SDS011;33903;44.704;10.448;2024-02-26T14:17:43;6.75;;;3.55;;
48114;SDS011;33903;44.704;10.448;2024-02-26T14:20:47;5.30;;;3.22;;
48114;SDS011;33903;44.704;10.448;2024-02-26T14:23:52;4.70;;;2.60;;
48114;SDS011;33903;44.704;10.448;2024-02-26T14:26:57;4.18;;;2.53;;
48114;SDS011;33903;44.704;10.448;2024-02-26T14:30:02;3.67;;;1.75;;
48114;SDS011;33903;44.704;10.448;2024-02-26T14:33:06;4.45;;;2.35;;
48114;SDS011;33903;44.704;10.448;2024-02-26T14:36:13;3.55;;;1.67;;
48114;SDS011;33903;44.704;10.448;2024-02-26T14:39:19;4.07;;;1.40;;
48114;SDS011;33903;44.704;10.448;2024-02-26T14:42:24;8.00;;;1.75;;
48114;SDS011;33903;44.704;10.448;2024-02-26T14:45:29;2.25;;;1.08;;
48114;SDS011;33903;44.704;10.448;2024-02-26T14:48:46;2.95;;;1.15;;
48114;SDS011;33903;44.704;10.448;2024-02-26T14:51:52;3.03;;;1.45;;
48114;SDS011;33903;44.704;10.448;2024-02-26T14:54:56;2.58;;;1.30;;
48114;SDS011;33903;44.704;10.448;2024-02-26T14:58:01;4.90;;;0.98;;
48114;SDS011;33903;44.704;10.448;2024-02-26T15:01:06;7.78;;;1.00;;
48114;SDS011;33903;44.704;10.448;2024-02-26T15:04:13;2.00;;;1.05;;
48114;SDS011;33903;44.704;10.448;2024-02-26T15:07:18;1.83;;;0.93;;
48114;SDS011;33903;44.704;10.448;2024-02-26T15:10:24;4.20;;;1.02;;
48114;SDS011;33903;44.704;10.448;2024-02-26T15:13:29;4.03;;;1.00;;
48114;SDS011;33903;44.704;10.448;2024-02-26T15:16:34;2.60;;;1.10;;
48114;SDS011;33903;44.704;10.448;2024-02-26T15:19:39;3.63;;;1.40;;
48114;SDS011;33903;44.704;10.448;2024-02-26T15:22:43;3.72;;;1.58;;
48114;SDS011;33903;44.704;10.448;2024-02-26T15:25:48;3.55;;;1.52;;
48114;SDS011;33903;44.704;10.448;2024-02-26T15:28:52;3.03;;;1.33;;
48114;SDS011;33903;44.704;10.448;2024-02-26T15:31:57;3.67;;;1.02;;
48114;SDS011;33903;44.704;10.448;2024-02-26T15:35:04;3.88;;;1.10;;
48114;SDS011;33903;44.704;10.448;2024-02-26T15:38:09;4.25;;;1.20;;
48114;SDS011;33903;44.704;10.448;2024-02-26T15:41:14;3.10;;;1.13;;
48114;SDS011;33903;44.704;10.448;2024-02-26T15:44:19;2.45;;;0.93;;
48114;SDS011;33903;44.704;10.448;2024-02-26T15:47:23;3.25;;;0.80;;
48114;SDS011;33903;44.704;10.448;2024-02-26T15:50:28;3.17;;;1.20;;
48114;SDS011;33903;44.704;10.448;2024-02-26T15:53:33;4.15;;;0.82;;
48114;SDS011;33903;44.704;10.448;2024-02-26T15:56:38;3.28;;;1.00;;
48114;SDS011;33903;44.704;10.448;2024-02-26T15:59:45;2.00;;;0.90;;
48114;SDS011;33903;44.704;10.448;2024-02-26T16:02:52;3.08;;;1.00;;
48114;SDS011;33903;44.704;10.448;2024-02-26T16:05:57;4.57;;;1.95;;
48114;SDS011;33903;44.704;10.448;2024-02-26T16:09:01;2.15;;;0.80;;
48114;SDS011;33903;44.704;10.448;2024-02-26T16:12:09;3.70;;;1.00;;
48114;SDS011;33903;44.704;10.448;2024-02-26T16:15:19;2.75;;;1.13;;
48114;SDS011;33903;44.704;10.448;2024-02-26T16:18:25;2.45;;;1.13;;
48114;SDS011;33903;44.704;10.448;2024-02-26T16:21:30;3.80;;;1.65;;
48114;SDS011;33903;44.704;10.448;2024-02-26T16:24:34;1.90;;;0.77;;
48114;SDS011;33903;44.704;10.448;2024-02-26T16:27:39;2.67;;;1.13;;
48114;SDS011;33903;44.704;10.448;2024-02-26T16:30:46;2.08;;;0.80;;
48114;SDS011;33903;44.704;10.448;2024-02-26T16:33:50;2.47;;;0.80;;
48114;SDS011;33903;44.704;10.448;2024-02-26T16:36:55;3.10;;;0.88;;
48114;SDS011;33903;44.704;10.448;2024-02-26T16:40:01;4.53;;;0.75;;
48114;SDS011;33903;44.704;10.448;2024-02-26T16:43:14;2.58;;;1.10;;
48114;SDS011;33903;44.704;10.448;2024-02-26T16:46:22;2.83;;;1.10;;
48114;SDS011;33903;44.704;10.448;2024-02-26T16:49:27;2.67;;;1.00;;
48114;SDS011;33903;44.704;10.448;2024-02-26T16:52:32;3.47;;;1.48;;
48114;SDS011;33903;44.704;10.448;2024-02-26T16:55:37;4.53;;;1.10;;
48114;SDS011;33903;44.704;10.448;2024-02-26T16:58:42;1.85;;;0.80;;
48114;SDS011;33903;44.704;10.448;2024-02-26T17:01:48;3.22;;;1.08;;
48114;SDS011;33903;44.704;10.448;2024-02-26T17:04:54;3.50;;;1.08;;
48114;SDS011;33903;44.704;10.448;2024-02-26T17:07:59;2.95;;;1.10;;
48114;SDS011;33903;44.704;10.448;2024-02-26T17:11:03;10.70;;;1.60;;
48114;SDS011;33903;44.704;10.448;2024-02-26T17:14:08;3.63;;;1.00;;
48114;SDS011;33903;44.704;10.448;2024-02-26T17:17:13;2.60;;;1.00;;
48114;SDS011;33903;44.704;10.448;2024-02-26T17:20:19;3.58;;;1.17;;
48114;SDS011;33903;44.704;10.448;2024-02-26T17:23:24;3.25;;;0.85;;
48114;SDS011;33903;44.704;10.448;2024-02-26T17:26:31;3.65;;;1.48;;
48114;SDS011;33903;44.704;10.448;2024-02-26T17:29:36;2.13;;;0.98;;
48114;SDS011;33903;44.704;10.448;2024-02-26T17:32:41;3.30;;;0.98;;
48114;SDS011;33903;44.704;10.448;2024-02-26T17:35:46;3.53;;;1.08;;
48114;SDS011;33903;44.704;10.448;2024-02-26T17:38:51;3.20;;;1.00;;
48114;SDS011;33903;44.704;10.448;2024-02-26T17:41:55;3.05;;;1.08;;
48114;SDS011;33903;44.704;10.448;2024-02-26T17:45:00;5.10;;;1.92;;
48114;SDS011;33903;44.704;10.448;2024-02-26T17:48:06;7.70;;;3.45;;
48114;SDS011;33903;44.704;10.448;2024-02-26T17:51:11;7.97;;;3.00;;
48114;SDS011;33903;44.704;10.448;2024-02-26T17:54:16;4.85;;;1.52;;
48114;SDS011;33903;44.704;10.448;2024-02-26T17:57:21;4.57;;;1.30;;
48114;SDS011;33903;44.704;10.448;2024-02-26T18:00:25;2.78;;;1.20;;
48114;SDS011;33903;44.704;10.448;2024-02-26T18:03:31;2.75;;;1.50;;
48114;SDS011;33903;44.704;10.448;2024-02-26T18:06:36;3.63;;;1.95;;
48114;SDS011;33903;44.704;10.448;2024-02-26T18:09:43;4.80;;;1.60;;
48114;SDS011;33903;44.704;10.448;2024-02-26T18:12:50;3.50;;;1.50;;
48114;SDS011;33903;44.704;10.448;2024-02-26T18:15:55;2.47;;;1.45;;
48114;SDS011;33903;44.704;10.448;2024-02-26T18:19:01;2.63;;;1.17;;
48114;SDS011;33903;44.704;10.448;2024-02-26T18:22:07;5.63;;;2.65;;